Time;durP1;ratioP1;P1;durP2;ratioP2;P2;SDS_P1;SDS_P2;PMS_P1;PMS_P2;Temp;Humidity;BMP_temperature;BMP_pressure;BME280_temperature;BME280_humidity;BME280_pressure;Samples;Min_cycle;Max_cycle;Signal;HPM_P1;HPM_P2
2022/09/19 00:01:38;;;;;;;3.28;0.65;;;17.10;73.90;;;;;;5034358;28;20071;-78
2022/09/19 00:04:07;;;;;;;2.47;0.80;;;17.10;73.90;;;;;;5033958;28;20026;-70
2022/09/19 00:06:38;;;;;;;5.53;2.30;;;17.10;73.90;;;;;;5034192;28;20080;-71
2022/09/19 00:09:06;;;;;;;3.60;0.80;;;17.10;74.10;;;;;;5033846;28;20029;-71
2022/09/19 00:11:32;;;;;;;3.22;0.75;;;17.10;74.30;;;;;;5033629;28;20112;-71
2022/09/19 00:13:59;;;;;;;2.85;0.70;;;17.10;74.50;;;;;;5033410;28;20388;-70
2022/09/19 00:16:30;;;;;;;3.75;0.60;;;17.10;74.30;;;;;;5033390;28;20017;-70
2022/09/19 00:18:57;;;;;;;2.92;0.80;;;17.10;74.30;;;;;;5033849;28;20488;-70
2022/09/19 00:21:30;;;;;;;4.32;0.80;;;17.10;74.30;;;;;;5033571;28;20490;-70
2022/09/19 00:26:41;;;;;;;2.10;0.60;;;17.10;73.80;;;;;;5033705;28;20136;-71
2022/09/19 00:29:09;;;;;;;2.10;0.60;;;17.10;74.30;;;;;;5033575;28;20112;-70
2022/09/19 00:31:35;;;;;;;0.95;0.55;;;17.00;74.30;;;;;;5033415;28;20499;-70
2022/09/19 00:34:03;;;;;;;2.63;0.90;;;17.10;74.30;;;;;;5033259;28;20044;-71
2022/09/19 00:36:29;;;;;;;3.17;0.75;;;17.10;74.20;;;;;;5033240;28;20029;-70
2022/09/19 00:38:55;;;;;;;2.42;0.90;;;17.00;74.40;;;;;;5033422;28;20365;-74
2022/09/19 00:41:27;;;;;;;3.05;0.70;;;17.10;74.50;;;;;;5033029;28;20096;-78
2022/09/19 00:43:54;;;;;;;2.33;0.70;;;17.00;74.50;;;;;;5033211;28;20099;-74
2022/09/19 00:46:22;;;;;;;1.13;0.50;;;17.00;74.60;;;;;;5033205;28;20084;-69
2022/09/19 00:48:55;;;;;;;1.13;0.55;;;17.00;74.60;;;;;;5032986;28;20025;-70
2022/09/19 00:51:43;;;;;;;1.08;0.65;;;17.00;74.50;;;;;;5032846;28;20045;-79
2022/09/19 00:54:13;;;;;;;3.65;0.70;;;17.00;74.60;;;;;;5033132;28;20017;-78
2022/09/19 00:56:48;;;;;;;0.90;0.60;;;17.00;74.70;;;;;;5032671;28;20104;-70
2022/09/19 00:59:14;;;;;;;5.68;0.90;;;17.00;75.00;;;;;;5030193;28;20040;-70
2022/09/19 01:01:41;;;;;;;1.95;0.50;;;17.00;75.40;;;;;;5030167;28;20021;-74
2022/09/19 01:04:20;;;;;;;3.08;0.65;;;17.00;75.50;;;;;;5032260;28;20119;-71
2022/09/19 01:06:58;;;;;;;3.55;0.60;;;17.00;76.00;;;;;;5032854;28;20103;-69
2022/09/19 01:09:39;;;;;;;4.10;0.68;;;17.00;76.10;;;;;;5032820;28;20483;-73
2022/09/19 01:12:33;;;;;;;5.32;0.73;;;17.00;76.10;;;;;;5032849;28;20063;-77
2022/09/19 01:15:19;;;;;;;3.60;0.68;;;17.00;76.00;;;;;;5032597;28;20080;-70
2022/09/19 01:17:48;;;;;;;2.95;0.60;;;17.00;75.70;;;;;;5032279;28;20472;-71
2022/09/19 01:20:35;;;;;;;1.48;0.57;;;17.00;74.30;;;;;;5032431;28;20076;-70
2022/09/19 01:23:39;;;;;;;0.73;0.50;;;17.00;74.20;;;;;;5032391;28;20029;-76
2022/09/19 01:26:31;;;;;;;2.95;0.60;;;17.00;74.30;;;;;;5032139;28;20080;-70
2022/09/19 01:29:25;;;;;;;5.93;0.60;;;17.00;74.30;;;;;;5032822;28;20453;-80
2022/09/19 01:31:57;;;;;;;1.80;0.70;;;17.00;74.90;;;;;;5032135;28;20026;-77
2022/09/19 01:34:37;;;;;;;;;;;17.00;75.30;;;;;;5032799;28;20025;-70
2022/09/19 01:37:05;;;;;;;1.80;0.47;;;16.90;75.30;;;;;;5032201;28;20004;-70
2022/09/19 01:39:34;;;;;;;3.67;1.00;;;16.90;75.70;;;;;;5031894;28;20025;-70
2022/09/19 01:42:01;;;;;;;3.72;0.60;;;16.90;75.70;;;;;;5031859;28;20032;-70
2022/09/19 01:44:29;;;;;;;3.92;0.70;;;16.90;75.70;;;;;;5032077;28;20042;-71
2022/09/19 01:47:11;;;;;;;5.82;0.50;;;16.90;75.70;;;;;;5031948;28;20033;-70
2022/09/19 01:50:08;;;;;;;2.60;0.60;;;16.90;75.70;;;;;;5031541;28;20026;-70
2022/09/19 01:53:02;;;;;;;3.85;0.60;;;16.90;75.90;;;;;;5020689;28;20045;-70
2022/09/19 01:55:33;;;;;;;4.40;0.88;;;16.90;76.30;;;;;;5031483;28;20539;-72
2022/09/19 01:58:04;;;;;;;1.65;0.80;;;16.90;76.70;;;;;;5032247;28;20472;-70
2022/09/19 02:00:31;;;;;;;4.85;0.60;;;16.90;76.40;;;;;;5031694;28;20034;-70
2022/09/19 02:03:11;;;;;;;3.50;0.77;;;16.90;76.30;;;;;;5031784;28;20025;-76
2022/09/19 02:05:53;;;;;;;5.82;0.60;;;16.90;76.40;;;;;;5031821;28;20056;-69
2022/09/19 02:08:31;;;;;;;5.13;0.83;;;16.90;76.60;;;;;;5031589;28;20036;-70
2022/09/19 02:11:11;;;;;;;3.25;0.50;;;16.90;76.70;;;;;;5031374;28;20033;-70
2022/09/19 02:13:40;;;;;;;2.13;0.70;;;16.90;76.80;;;;;;5031574;28;20444;-70
2022/09/19 02:16:17;;;;;;;2.90;0.95;;;16.90;77.10;;;;;;5031836;28;20053;-69
2022/09/19 02:18:54;;;;;;;2.78;0.98;;;16.90;77.30;;;;;;5031672;28;20075;-70
2022/09/19 02:21:38;;;;;;;2.22;0.60;;;16.90;77.60;;;;;;5032005;28;20108;-69
2022/09/19 02:24:13;;;;;;;4.93;0.50;;;16.90;77.90;;;;;;5031938;28;20075;-70
2022/09/19 02:26:42;;;;;;;4.85;0.60;;;16.90;77.80;;;;;;5031672;28;20037;-70
2022/09/19 02:29:12;;;;;;;1.20;0.80;;;16.90;77.70;;;;;;5031448;28;20463;-70
2022/09/19 02:31:38;;;;;;;4.28;0.50;;;16.90;77.70;;;;;;5031605;28;20025;-69
2022/09/19 02:34:07;;;;;;;0.88;0.47;;;16.80;77.50;;;;;;5032315;28;20014;-70
2022/09/19 02:36:40;;;;;;;3.42;0.60;;;16.80;77.80;;;;;;5031533;28;20033;-70
2022/09/19 02:39:19;;;;;;;2.97;0.43;;;16.80;78.00;;;;;;5031582;28;20051;-76
2022/09/19 02:41:59;;;;;;;3.42;0.60;;;16.80;78.20;;;;;;5032346;28;20018;-69
2022/09/19 02:44:59;;;;;;;2.47;0.60;;;16.80;78.10;;;;;;5030847;28;20025;-69
2022/09/19 02:47:28;;;;;;;2.35;0.55;;;16.70;77.80;;;;;;5030195;28;20028;-70
2022/09/19 02:50:01;;;;;;;2.78;0.50;;;16.70;77.70;;;;;;5029784;28;20042;-70
2022/09/19 02:52:33;;;;;;;2.17;0.73;;;16.70;77.80;;;;;;5030064;28;20068;-70
2022/09/19 02:55:12;;;;;;;2.17;0.40;;;16.70;78.10;;;;;;5030557;28;20026;-67
2022/09/19 02:57:43;;;;;;;3.45;0.63;;;16.70;78.40;;;;;;5030565;28;20033;-79
2022/09/19 03:00:12;;;;;;;3.50;0.57;;;16.70;78.50;;;;;;5030933;28;20041;-79
2022/09/19 03:02:43;;;;;;;2.85;0.50;;;16.60;79.00;;;;;;5032428;28;20051;-70
2022/09/19 03:05:17;;;;;;;1.20;0.50;;;16.60;78.70;;;;;;5035880;28;20026;-74
2022/09/19 03:07:49;;;;;;;5.97;0.60;;;16.60;78.80;;;;;;5034841;28;20060;-77
2022/09/19 03:10:20;;;;;;;2.60;0.63;;;16.60;78.90;;;;;;5034634;28;20463;-72
2022/09/19 03:12:53;;;;;;;1.85;0.70;;;16.60;79.00;;;;;;5034572;28;20100;-71
2022/09/19 03:15:56;;;;;;;2.65;0.68;;;16.60;79.30;;;;;;5034953;28;20031;-71
2022/09/19 03:18:24;;;;;;;1.23;0.70;;;16.60;79.30;;;;;;5021458;28;20030;-70
2022/09/19 03:20:58;;;;;;;1.67;0.70;;;16.60;79.50;;;;;;5034748;28;20022;-78
2022/09/19 03:23:38;;;;;;;4.15;0.60;;;16.50;79.60;;;;;;5034832;28;20080;-70
2022/09/19 03:26:09;;;;;;;3.75;0.47;;;16.50;79.80;;;;;;5034618;28;20021;-70
2022/09/19 03:28:34;;;;;;;1.65;0.60;;;16.50;79.80;;;;;;5034575;28;20448;-71
2022/09/19 03:31:00;;;;;;;2.03;0.60;;;16.50;80.30;;;;;;5034589;28;20056;-71
2022/09/19 03:33:27;;;;;;;4.03;0.70;;;16.50;80.40;;;;;;5034743;28;20044;-70
2022/09/19 03:35:56;;;;;;;2.85;0.50;;;16.50;80.40;;;;;;5034430;28;20032;-69
2022/09/19 03:38:22;;;;;;;2.28;0.60;;;16.50;80.50;;;;;;5034878;28;20096;-70
2022/09/19 03:40:48;;;;;;;7.88;0.68;;;16.50;80.50;;;;;;5034534;28;20032;-69
2022/09/19 03:43:14;;;;;;;2.35;0.90;;;16.50;80.60;;;;;;5034744;28;20021;-70
2022/09/19 03:45:40;;;;;;;2.58;0.95;;;16.50;80.80;;;;;;5034491;28;20029;-78
2022/09/19 03:48:05;;;;;;;3.45;0.60;;;16.50;81.00;;;;;;5034673;28;20087;-70
2022/09/19 03:50:31;;;;;;;3.40;0.70;;;16.50;81.10;;;;;;5034661;28;20053;-76
2022/09/19 03:52:58;;;;;;;2.17;0.68;;;16.40;81.20;;;;;;5034870;28;20029;-78
2022/09/19 03:55:23;;;;;;;2.63;0.70;;;16.50;81.40;;;;;;5034547;28;20040;-70
2022/09/19 03:57:49;;;;;;;4.72;0.80;;;16.40;81.60;;;;;;5034435;28;20030;-69
2022/09/19 04:00:15;;;;;;;6.38;0.98;;;16.40;81.90;;;;;;5034729;28;20068;-76
2022/09/19 04:02:41;;;;;;;3.40;1.05;;;16.40;81.90;;;;;;5034379;28;20038;-69
2022/09/19 04:05:07;;;;;;;2.15;0.80;;;16.40;81.90;;;;;;5033780;28;20029;-70
2022/09/19 04:07:33;;;;;;;3.88;0.80;;;16.40;81.90;;;;;;5034368;28;20041;-70
2022/09/19 04:09:58;;;;;;;3.90;0.75;;;16.40;81.90;;;;;;5033878;28;20460;-77
2022/09/19 04:12:24;;;;;;;2.92;0.90;;;16.40;82.00;;;;;;5034331;28;20386;-70
2022/09/19 04:14:52;;;;;;;6.72;1.00;;;16.40;82.00;;;;;;5033846;28;20033;-70
2022/09/19 04:17:18;;;;;;;4.15;0.70;;;16.40;82.10;;;;;;5034185;28;20021;-70
2022/09/19 04:19:43;;;;;;;6.35;0.90;;;16.40;82.20;;;;;;5034156;28;20029;-70
2022/09/19 04:22:10;;;;;;;1.95;0.80;;;16.40;82.30;;;;;;5034188;28;20458;-70
2022/09/19 04:24:38;;;;;;;7.25;1.30;;;16.40;82.30;;;;;;5034333;28;20384;-70
2022/09/19 04:27:06;;;;;;;3.95;0.70;;;16.40;82.30;;;;;;5034366;28;20034;-69
2022/09/19 04:29:35;;;;;;;4.93;0.80;;;16.40;82.40;;;;;;5034069;28;20475;-70
2022/09/19 04:32:04;;;;;;;2.72;0.98;;;16.30;82.40;;;;;;5034205;28;20041;-70
2022/09/19 04:34:30;;;;;;;2.72;0.90;;;16.30;82.30;;;;;;5034030;28;20029;-69
2022/09/19 04:36:59;;;;;;;6.03;0.77;;;16.30;82.30;;;;;;5033229;28;20029;-69
2022/09/19 04:39:25;;;;;;;1.65;0.60;;;16.20;82.50;;;;;;5033832;28;20030;-72
2022/09/19 04:41:52;;;;;;;4.57;0.90;;;16.20;82.80;;;;;;5034080;28;20025;-69
2022/09/19 04:44:28;;;;;;;4.75;1.00;;;16.20;82.90;;;;;;5033645;28;20411;-70
2022/09/19 04:46:54;;;;;;;7.60;1.30;;;16.20;82.90;;;;;;5033791;28;20021;-69
2022/09/19 04:49:19;;;;;;;1.98;1.38;;;16.20;83.00;;;;;;5033737;28;20030;-70
2022/09/19 04:51:46;;;;;;;4.07;1.10;;;16.20;83.00;;;;;;5033408;28;20060;-70
2022/09/19 04:54:12;;;;;;;3.67;0.75;;;16.10;83.00;;;;;;5033530;28;20034;-77
2022/09/19 04:56:38;;;;;;;4.13;0.65;;;16.20;83.20;;;;;;5033555;28;20029;-73
2022/09/19 04:59:04;;;;;;;1.23;0.55;;;16.10;83.20;;;;;;5033173;28;20033;-69
2022/09/19 05:01:30;;;;;;;2.00;0.70;;;16.10;83.40;;;;;;5033342;28;20030;-70
2022/09/19 05:03:56;;;;;;;3.00;0.60;;;16.10;83.40;;;;;;5033387;28;20025;-70
2022/09/19 05:06:23;;;;;;;6.90;0.70;;;16.10;84.10;;;;;;5033457;28;20076;-69
2022/09/19 05:08:50;;;;;;;2.80;0.65;;;16.10;83.50;;;;;;5033664;28;20483;-70
2022/09/19 05:11:18;;;;;;;2.08;0.80;;;16.10;83.70;;;;;;5032879;28;20116;-70
2022/09/19 05:13:44;;;;;;;2.50;0.73;;;16.00;83.70;;;;;;5033169;28;20368;-76
2022/09/19 05:16:13;;;;;;;4.35;0.73;;;16.00;83.70;;;;;;5032748;28;20072;-69
2022/09/19 05:18:39;;;;;;;2.40;0.65;;;16.00;83.70;;;;;;5033688;28;20045;-70
2022/09/19 05:21:07;;;;;;;5.40;0.90;;;16.10;83.90;;;;;;5033375;28;20025;-78
2022/09/19 05:23:36;;;;;;;3.63;0.90;;;16.10;84.00;;;;;;5032851;28;20029;-70
2022/09/19 05:26:04;;;;;;;3.00;0.70;;;16.00;84.20;;;;;;5033347;28;20538;-70
2022/09/19 05:28:30;;;;;;;3.47;1.00;;;16.10;84.20;;;;;;5033388;28;20083;-69
2022/09/19 05:30:56;;;;;;;2.20;0.90;;;16.10;84.10;;;;;;5033608;28;20030;-69
2022/09/19 05:33:26;;;;;;;4.13;1.25;;;16.10;84.10;;;;;;5033058;28;20057;-70
2022/09/19 05:35:56;;;;;;;5.57;1.33;;;16.10;83.90;;;;;;5032579;28;20060;-70
2022/09/19 05:38:23;;;;;;;4.32;0.98;;;16.10;83.90;;;;;;5032492;28;20021;-69
2022/09/19 05:40:52;;;;;;;4.22;1.02;;;16.00;83.70;;;;;;5032826;28;20018;-69
2022/09/19 05:43:18;;;;;;;2.70;1.00;;;16.10;83.50;;;;;;5033145;28;20664;-72
2022/09/19 05:45:44;;;;;;;3.63;0.90;;;16.10;83.60;;;;;;5033121;28;20080;-69
2022/09/19 05:48:10;;;;;;;10.15;1.27;;;16.10;83.70;;;;;;5033091;28;20037;-70
2022/09/19 05:50:36;;;;;;;1.92;0.85;;;16.10;83.80;;;;;;5032390;28;20049;-71
2022/09/19 05:55:46;;;;;;;15.70;2.05;;;16.10;84.00;;;;;;5033125;28;20036;-69
2022/09/19 05:58:15;;;;;;;29.50;2.78;;;16.20;83.90;;;;;;5032983;28;20033;-70
2022/09/19 06:00:40;;;;;;;5.88;1.48;;;16.20;83.80;;;;;;5032848;28;20018;-69
2022/09/19 06:03:09;;;;;;;3.38;1.15;;;16.30;83.70;;;;;;5032634;28;20040;-68
2022/09/19 06:05:40;;;;;;;0.95;0.70;;;16.40;90.90;;;;;;5032339;28;20021;-69
2022/09/19 06:08:07;;;;;;;2.70;0.80;;;16.40;83.10;;;;;;5032752;28;20037;-68
2022/09/19 06:10:35;;;;;;;7.97;0.85;;;16.40;82.70;;;;;;5032936;28;20396;-69
2022/09/19 06:13:01;;;;;;;2.05;0.55;;;16.40;82.60;;;;;;5032588;28;20029;-69
2022/09/19 06:15:26;;;;;;;1.73;0.60;;;16.40;82.30;;;;;;5032619;28;20025;-68
2022/09/19 06:17:56;;;;;;;4.90;0.80;;;16.40;82.30;;;;;;5032574;28;20151;-69
2022/09/19 06:20:23;;;;;;;7.72;1.00;;;16.40;82.10;;;;;;5032511;28;20037;-69
2022/09/19 06:22:50;;;;;;;3.03;0.95;;;16.40;82.00;;;;;;5032454;28;20078;-69
2022/09/19 06:25:16;;;;;;;3.00;0.75;;;16.40;81.70;;;;;;5032854;28;20033;-68
2022/09/19 06:27:46;;;;;;;2.75;0.70;;;16.40;81.70;;;;;;5032430;28;20052;-69
2022/09/19 06:30:12;;;;;;;6.57;0.90;;;16.40;81.90;;;;;;5032606;28;20483;-68
2022/09/19 06:32:38;;;;;;;1.95;0.60;;;16.50;82.10;;;;;;5032387;28;20107;-69
2022/09/19 06:35:05;;;;;;;2.08;0.77;;;16.50;82.00;;;;;;5032377;28;20025;-68
2022/09/19 06:37:30;;;;;;;5.82;0.68;;;16.50;81.80;;;;;;5033321;28;20434;-68
2022/09/19 06:39:56;;;;;;;3.22;0.57;;;16.50;81.90;;;;;;5036434;28;20029;-69
2022/09/19 06:42:22;;;;;;;5.18;0.80;;;16.60;82.10;;;;;;5035951;28;20124;-69
2022/09/19 06:44:49;;;;;;;3.15;0.90;;;16.60;82.30;;;;;;5033529;28;20040;-70
2022/09/19 06:47:15;;;;;;;3.38;1.00;;;16.60;82.20;;;;;;5033883;28;20029;-69
2022/09/19 06:49:41;;;;;;;3.47;0.80;;;16.70;82.20;;;;;;5035406;28;20025;-69
2022/09/19 06:52:07;;;;;;;7.32;1.65;;;16.70;82.10;;;;;;5035966;28;20021;-69
2022/09/19 06:54:33;;;;;;;4.53;1.45;;;16.80;81.90;;;;;;5036180;28;20100;-69
2022/09/19 06:57:00;;;;;;;3.42;1.00;;;16.80;81.70;;;;;;5035893;28;20109;-68
2022/09/19 06:59:25;;;;;;;4.05;1.05;;;16.80;81.70;;;;;;5036001;28;20443;-69
2022/09/19 07:01:52;;;;;;;4.07;1.20;;;16.80;81.50;;;;;;5035913;28;20068;-73
2022/09/19 07:04:18;;;;;;;2.95;0.85;;;16.90;81.60;;;;;;5036017;28;20064;-69
2022/09/19 07:06:44;;;;;;;3.72;0.65;;;16.90;81.50;;;;;;5035352;28;20061;-69
2022/09/19 07:09:10;;;;;;;5.95;0.80;;;17.00;80.90;;;;;;5033472;28;20022;-70
2022/09/19 07:11:36;;;;;;;1.45;0.70;;;17.10;80.50;;;;;;5033804;28;20079;-69
2022/09/19 07:14:05;;;;;;;5.65;1.00;;;17.10;80.20;;;;;;5033214;28;20069;-69
2022/09/19 07:16:31;;;;;;;3.55;1.25;;;17.20;79.90;;;;;;5033463;28;20021;-70
2022/09/19 07:18:57;;;;;;;2.08;1.13;;;17.20;79.60;;;;;;5034419;28;20513;-69
2022/09/19 07:21:22;;;;;;;4.28;1.00;;;17.30;79.50;;;;;;5032661;28;20116;-71
2022/09/19 07:23:49;;;;;;;3.33;0.80;;;17.30;79.20;;;;;;5033761;28;20112;-72
2022/09/19 07:26:15;;;;;;;4.55;1.02;;;17.30;79.00;;;;;;5033116;28;20075;-70
2022/09/19 07:28:41;;;;;;;6.18;0.88;;;17.40;78.80;;;;;;5032947;28;20476;-67
2022/09/19 07:31:07;;;;;;;4.95;1.45;;;17.50;78.80;;;;;;5032822;28;20022;-67
2022/09/19 07:33:33;;;;;;;3.53;1.10;;;17.50;78.70;;;;;;5033328;28;20033;-67
2022/09/19 07:35:59;;;;;;;5.55;1.20;;;17.60;79.00;;;;;;5033407;28;20025;-69
2022/09/19 07:38:27;;;;;;;5.47;0.80;;;17.70;79.10;;;;;;5033081;28;20051;-67
2022/09/19 07:40:54;;;;;;;7.22;0.88;;;17.80;78.50;;;;;;5032865;28;20030;-68
2022/09/19 07:43:20;;;;;;;1.38;0.77;;;17.80;78.00;;;;;;5032811;28;20075;-67
2022/09/19 07:45:48;;;;;;;3.22;0.80;;;17.90;77.60;;;;;;5033510;28;20029;-67
2022/09/19 07:48:15;;;;;;;5.85;0.82;;;17.90;77.50;;;;;;5033769;28;20056;-66
2022/09/19 07:50:42;;;;;;;4.82;0.82;;;18.00;77.50;;;;;;5032408;28;20045;-66
2022/09/19 07:53:13;;;;;;;6.07;0.80;;;18.10;77.00;;;;;;5033628;28;20476;-67
2022/09/19 07:55:41;;;;;;;4.93;0.57;;;18.20;76.50;;;;;;5034052;28;20056;-66
2022/09/19 07:58:08;;;;;;;4.18;0.95;;;18.20;76.20;;;;;;5034227;28;20036;-66
2022/09/19 08:00:35;;;;;;;3.25;0.73;;;18.30;76.10;;;;;;5034400;28;20363;-66
2022/09/19 08:03:04;;;;;;;3.35;0.70;;;18.40;75.60;;;;;;5033398;28;20079;-67
2022/09/19 08:05:35;;;;;;;2.83;0.80;;;18.40;75.20;;;;;;5034484;28;20156;-66
2022/09/19 08:08:01;;;;;;;6.82;0.90;;;18.50;75.60;;;;;;5034555;28;20447;-66
2022/09/19 08:10:27;;;;;;;3.38;0.73;;;18.50;75.70;;;;;;5034653;28;20025;-67
2022/09/19 08:12:52;;;;;;;1.98;0.82;;;18.60;75.50;;;;;;5034644;28;20142;-67
2022/09/19 08:15:19;;;;;;;2.28;0.75;;;18.70;75.60;;;;;;5034780;28;20025;-66
2022/09/19 08:18:18;;;;;;;7.55;0.90;;;18.70;75.70;;;;;;5033687;28;20052;-66
2022/09/19 08:20:44;;;;;;;3.10;0.80;;;18.80;75.90;;;;;;5034706;28;20484;-69
2022/09/19 08:23:12;;;;;;;2.97;0.85;;;18.80;75.60;;;;;;5034653;28;20026;-67
2022/09/19 08:25:43;;;;;;;3.78;0.90;;;18.90;76.70;;;;;;5034968;28;20029;-68
2022/09/19 08:28:09;;;;;;;3.92;1.00;;;19.10;81.20;;;;;;5034092;28;20057;-69
2022/09/19 08:30:35;;;;;;;1.95;0.70;;;19.10;80.70;;;;;;5032721;28;20014;-69
2022/09/19 08:33:02;;;;;;;2.20;0.90;;;19.20;79.90;;;;;;5033315;28;20029;-69
2022/09/19 08:35:30;;;;;;;5.07;0.85;;;19.20;75.70;;;;;;5033229;28;20447;-69
2022/09/19 08:37:57;;;;;;;4.05;0.70;;;19.30;78.50;;;;;;5033548;28;20435;-69
2022/09/19 08:40:33;;;;;;;1.17;0.60;;;19.30;82.80;;;;;;5033356;28;20021;-67
2022/09/19 08:43:09;;;;;;;3.55;0.80;;;19.40;80.10;;;;;;5033576;28;20033;-69
2022/09/19 08:46:05;;;;;;;5.10;0.77;;;19.50;89.60;;;;;;5034247;28;20423;-69
2022/09/19 08:48:58;;;;;;;1.10;0.70;;;19.60;75.70;;;;;;5034422;28;20500;-67
2022/09/19 08:51:40;;;;;;;1.73;0.75;;;19.60;72.70;;;;;;5034244;28;20510;-67
2022/09/19 08:54:30;;;;;;;3.83;0.90;;;19.60;72.20;;;;;;5034162;28;20484;-69
2022/09/19 08:56:58;;;;;;;4.65;0.90;;;19.60;71.60;;;;;;5034124;28;20033;-69
2022/09/19 08:59:29;;;;;;;1.67;0.63;;;19.70;71.10;;;;;;5034056;28;20025;-69
2022/09/19 09:02:01;;;;;;;2.58;0.90;;;19.70;70.20;;;;;;5033481;28;20076;-68
2022/09/19 09:04:32;;;;;;;3.97;0.77;;;19.80;70.00;;;;;;5033825;28;20022;-69
2022/09/19 09:07:08;;;;;;;2.67;0.60;;;19.80;69.40;;;;;;5033888;28;20034;-67
2022/09/19 09:09:55;;;;;;;0.65;0.43;;;19.90;68.40;;;;;;5033854;28;20064;-68
2022/09/19 09:12:32;;;;;;;1.17;0.50;;;20.00;67.30;;;;;;5033769;28;20030;-69
2022/09/19 09:15:05;;;;;;;1.38;0.43;;;20.10;66.70;;;;;;5033902;28;20032;-67
2022/09/19 09:17:55;;;;;;;1.95;0.50;;;20.10;65.10;;;;;;5033788;28;20404;-69
2022/09/19 09:20:49;;;;;;;1.80;0.63;;;20.20;61.80;;;;;;5033890;28;20509;-69
2022/09/19 09:23:27;;;;;;;1.48;0.50;;;20.30;61.20;;;;;;5033737;28;20021;-69
2022/09/19 09:26:06;;;;;;;0.30;0.30;;;20.30;57.70;;;;;;5033307;28;20108;-69
2022/09/19 09:28:43;;;;;;;0.50;0.32;;;20.40;53.50;;;;;;5033520;28;20042;-73
2022/09/19 09:31:47;;;;;;;2.58;0.93;;;20.40;50.90;;;;;;5033751;28;20025;-68
2022/09/19 09:34:35;;;;;;;1.75;0.35;;;20.40;48.30;;;;;;5030555;28;20432;-69
2022/09/19 09:37:25;;;;;;;0.60;0.28;;;20.50;46.60;;;;;;5033430;28;20037;-67
2022/09/19 09:43:09;;;;;;;0.20;0.20;;;20.50;43.10;;;;;;5033650;28;20411;-68
2022/09/19 09:45:44;;;;;;;1.52;0.25;;;20.60;42.40;;;;;;5033398;28;20022;-69
2022/09/19 09:48:36;;;;;;;1.25;0.30;;;20.60;42.70;;;;;;5033247;28;20377;-68
2022/09/19 09:51:39;;;;;;;0.43;0.30;;;20.70;46.00;;;;;;5032910;28;20058;-69
2022/09/19 09:56:14;;;;;;;3.65;0.38;;;20.70;44.20;;;;;;5033687;28;20026;-68
2022/09/19 09:57:05;;;;;;;0.35;0.20;;;20.70;42.10;;;;;;5033001;28;20029;-69
2022/09/19 10:05:42;;;;;;;0.68;0.30;;;20.90;40.40;;;;;;5033131;28;20130;-68
2022/09/19 10:08:27;;;;;;;0.30;0.30;;;20.90;42.20;;;;;;5033084;28;20037;-69
2022/09/19 10:11:05;;;;;;;0.30;0.30;;;21.00;40.60;;;;;;5032982;28;20078;-67
2022/09/19 10:13:39;;;;;;;0.30;0.30;;;21.10;41.50;;;;;;5032184;28;20152;-69
2022/09/19 10:16:06;;;;;;;0.40;0.30;;;21.10;39.60;;;;;;5033108;28;20419;-69
2022/09/19 10:18:51;;;;;;;0.75;0.30;;;21.20;38.90;;;;;;5033248;28;20036;-68
2022/09/19 10:21:17;;;;;;;2.97;0.30;;;21.20;39.30;;;;;;5032696;28;20036;-73
2022/09/19 10:23:45;;;;;;;0.13;0.10;;;21.20;38.70;;;;;;5032941;28;20029;-69
2022/09/19 10:26:19;;;;;;;0.47;0.30;;;21.30;37.30;;;;;;5033238;28;20079;-67
2022/09/19 10:28:56;;;;;;;1.75;0.30;;;21.30;37.50;;;;;;5032756;28;20041;-69
2022/09/19 10:31:44;;;;;;;0.40;0.40;;;21.40;37.20;;;;;;5032644;28;20030;-73
2022/09/19 10:34:30;;;;;;;0.20;0.20;;;21.40;37.60;;;;;;5032565;28;20036;-69
2022/09/19 10:37:02;;;;;;;0.50;0.38;;;21.50;37.70;;;;;;5033084;28;20025;-68
2022/09/19 10:39:29;;;;;;;0.20;0.20;;;21.50;37.30;;;;;;5032731;28;20472;-73
2022/09/19 10:41:54;;;;;;;0.20;0.20;;;21.60;36.80;;;;;;5032786;28;20033;-69
2022/09/19 10:44:25;;;;;;;3.50;0.30;;;21.60;34.90;;;;;;5032518;28;20048;-69
2022/09/19 10:47:02;;;;;;;0.95;0.40;;;21.60;35.10;;;;;;5032375;28;20029;-68
2022/09/19 10:49:38;;;;;;;0.45;0.30;;;21.60;37.20;;;;;;5032694;28;20030;-69
2022/09/19 10:52:04;;;;;;;0.22;0.20;;;21.70;36.90;;;;;;5032696;28;20487;-73
2022/09/19 10:54:42;;;;;;;0.80;0.30;;;21.70;37.80;;;;;;5032519;28;20034;-73
2022/09/19 10:57:46;;;;;;;0.20;0.20;;;21.70;36.00;;;;;;5032328;28;20040;-68
2022/09/19 11:00:46;;;;;;;0.47;0.30;;;21.80;36.30;;;;;;5032550;28;20061;-68
2022/09/19 11:03:25;;;;;;;0.20;0.20;;;21.80;35.30;;;;;;5032460;28;20025;-69
2022/09/19 11:06:12;;;;;;;0.25;0.22;;;21.90;35.00;;;;;;5032879;28;20032;-69
2022/09/19 11:08:50;;;;;;;0.40;0.30;;;21.90;36.60;;;;;;5032661;28;20042;-68
2022/09/19 11:11:37;;;;;;;0.30;0.20;;;22.00;36.50;;;;;;5032588;28;20422;-69
2022/09/19 11:14:18;;;;;;;0.80;0.35;;;22.00;36.30;;;;;;5032340;28;20158;-68
2022/09/19 11:17:00;;;;;;;0.45;0.30;;;22.00;34.90;;;;;;5032784;28;20033;-68
2022/09/19 11:19:53;;;;;;;0.55;0.20;;;22.10;35.10;;;;;;5032733;28;20064;-69
2022/09/19 11:22:31;;;;;;;0.30;0.20;;;22.10;34.90;;;;;;5032310;28;20030;-69
2022/09/19 11:25:08;;;;;;;0.30;0.30;;;22.20;33.40;;;;;;5034809;28;20022;-68
2022/09/19 11:28:03;;;;;;;2.28;0.40;;;22.20;36.00;;;;;;5035825;28;20065;-69
2022/09/19 11:30:34;;;;;;;0.68;0.38;;;22.20;37.30;;;;;;5007586;28;20034;-69
2022/09/19 11:33:15;;;;;;;0.30;0.30;;;22.30;36.20;;;;;;5035842;28;20022;-69
2022/09/19 11:36:13;;;;;;;3.13;0.30;;;22.30;35.70;;;;;;5035582;28;20018;-71
2022/09/19 11:38:38;;;;;;;0.70;0.25;;;22.40;35.50;;;;;;5035655;28;20072;-69
2022/09/19 11:41:23;;;;;;;0.30;0.30;;;22.40;36.00;;;;;;5035936;28;20030;-68
2022/09/19 11:44:03;;;;;;;0.77;0.40;;;22.40;36.80;;;;;;5035625;28;20021;-69
2022/09/19 11:46:43;;;;;;;0.75;0.40;;;22.40;37.20;;;;;;5035707;28;20033;-68
2022/09/19 11:49:26;;;;;;;0.47;0.30;;;22.50;36.50;;;;;;5035346;28;20072;-68
2022/09/19 11:52:12;;;;;;;0.30;0.30;;;22.50;36.80;;;;;;5035417;28;20040;-72
2022/09/19 11:54:57;;;;;;;0.47;0.30;;;22.60;35.30;;;;;;5035411;28;20029;-69
2022/09/19 11:57:54;;;;;;;0.52;0.40;;;22.60;36.20;;;;;;5035331;28;20407;-69
2022/09/19 12:00:25;;;;;;;1.30;0.50;;;22.60;35.90;;;;;;5035391;28;20064;-69
2022/09/19 12:03:13;;;;;;;0.30;0.30;;;22.70;35.30;;;;;;5035472;28;20048;-69
2022/09/19 12:06:12;;;;;;;0.63;0.40;;;22.70;36.50;;;;;;5035121;28;20071;-69
2022/09/19 12:09:07;;;;;;;2.30;0.40;;;22.70;36.10;;;;;;5034856;28;20045;-69
2022/09/19 12:12:02;;;;;;;0.47;0.30;;;22.80;37.20;;;;;;5034885;28;20369;-68
2022/09/19 12:15:03;;;;;;;0.73;0.30;;;22.80;36.40;;;;;;5026993;28;20048;-69
2022/09/19 12:17:35;;;;;;;0.35;0.35;;;22.90;37.10;;;;;;5011762;28;20029;-69
2022/09/19 12:20:00;;;;;;;;;;;22.90;36.30;;;;;;5035327;28;20380;-69
2022/09/19 12:22:29;;;;;;;0.57;0.40;;;22.90;36.30;;;;;;5034677;28;19927;-69
2022/09/19 12:25:19;;;;;;;0.30;0.30;;;22.90;36.20;;;;;;5034616;28;20029;-68
2022/09/19 12:28:06;;;;;;;0.40;0.30;;;22.90;36.20;;;;;;5034846;28;20041;-69
2022/09/19 12:30:39;;;;;;;0.43;0.40;;;23.00;36.60;;;;;;5034618;28;20024;-69
2022/09/19 12:33:13;;;;;;;0.80;0.40;;;23.00;36.10;;;;;;5034545;28;20029;-74
2022/09/19 12:35:51;;;;;;;0.43;0.40;;;23.00;36.90;;;;;;5033786;28;20021;-69
2022/09/19 12:38:27;;;;;;;1.05;0.40;;;23.00;36.80;;;;;;5034656;28;20503;-68
2022/09/19 12:40:59;;;;;;;0.30;0.30;;;23.10;35.80;;;;;;5034458;28;20044;-69
2022/09/19 12:43:46;;;;;;;1.08;0.25;;;23.10;35.60;;;;;;5034873;28;20029;-69
2022/09/19 12:46:50;;;;;;;0.80;0.40;;;23.10;36.40;;;;;;5034194;28;20033;-68
2022/09/19 12:49:40;;;;;;;0.40;0.40;;;23.10;36.80;;;;;;5034264;28;20029;-69
2022/09/19 12:52:14;;;;;;;3.70;0.40;;;23.20;35.90;;;;;;5034568;28;20037;-69
2022/09/19 12:54:47;;;;;;;0.50;0.30;;;23.10;35.20;;;;;;5034377;28;20025;-69
2022/09/19 12:57:36;;;;;;;1.67;0.60;;;23.10;34.60;;;;;;5034224;28;20038;-68
2022/09/19 13:00:03;;;;;;;0.75;0.40;;;23.10;35.90;;;;;;5033847;28;20018;-68
2022/09/19 13:02:34;;;;;;;0.30;0.30;;;23.10;35.00;;;;;;5034378;28;20102;-68
2022/09/19 13:05:07;;;;;;;0.25;0.25;;;23.10;34.50;;;;;;5034233;28;20060;-68
2022/09/19 13:07:50;;;;;;;;;;;23.10;34.10;;;;;;5034286;28;20045;-70
2022/09/19 13:10:36;;;;;;;0.65;0.30;;;23.20;32.90;;;;;;5033924;28;19905;-69
2022/09/19 13:13:20;;;;;;;3.85;0.40;;;23.20;32.60;;;;;;5033738;28;20030;-69
2022/09/19 13:15:50;;;;;;;0.60;0.40;;;23.20;32.90;;;;;;5033475;28;20406;-69
2022/09/19 13:23:55;;;;;;;1.70;1.23;;;23.30;33.80;;;;;;5032592;28;20036;-69
2022/09/19 13:26:27;;;;;;;1.27;0.50;;;23.40;35.00;;;;;;5032423;28;20025;-72
2022/09/19 13:28:53;;;;;;;0.45;0.40;;;23.40;34.40;;;;;;5033106;28;20048;-68
2022/09/19 13:31:23;;;;;;;0.40;0.40;;;23.50;34.40;;;;;;5033620;28;20022;-68
2022/09/19 13:33:57;;;;;;;0.35;0.30;;;23.50;35.00;;;;;;5033158;28;20034;-68
2022/09/19 13:36:26;;;;;;;1.52;0.30;;;23.50;33.30;;;;;;5032684;28;20025;-68
2022/09/19 13:38:58;;;;;;;2.72;0.30;;;23.50;33.20;;;;;;5033193;28;20026;-68
2022/09/19 13:41:36;;;;;;;0.65;0.40;;;23.50;33.70;;;;;;5033056;28;20036;-68